createdAt,value
2018-11-07T00:00:54.879Z,85.50
2018-11-07T00:03:26.616Z,85.30
2018-11-07T00:05:58.076Z,85.20
2018-11-07T00:08:29.604Z,85.20
2018-11-07T00:11:00.685Z,85.00
2018-11-07T00:13:32.028Z,85.20
2018-11-07T00:16:03.690Z,85.50
2018-11-07T00:18:35.330Z,85.70
2018-11-07T00:21:07.158Z,85.90
2018-11-07T00:23:38.707Z,86.20
2018-11-07T00:26:10.317Z,86.20
2018-11-07T00:28:41.553Z,86.10
2018-11-07T00:31:12.958Z,86.00
2018-11-07T00:33:44.892Z,86.10
2018-11-07T00:36:16.780Z,86.20
2018-11-07T00:38:48.079Z,86.00
2018-11-07T00:41:19.518Z,86.10
2018-11-07T00:43:51.463Z,86.10
2018-11-07T00:46:22.872Z,86.30
2018-11-07T00:48:54.474Z,86.50
2018-11-07T00:51:25.881Z,87.50
2018-11-07T00:53:57.389Z,87.50
2018-11-07T00:56:28.831Z,88.60
2018-11-07T00:59:00.039Z,87.70
2018-11-07T01:01:31.519Z,87.60
2018-11-07T01:04:03.192Z,87.40
2018-11-07T01:06:35.084Z,87.40
2018-11-07T01:09:11.677Z,87.60
2018-11-07T01:11:43.749Z,88.00
2018-11-07T01:14:15.100Z,88.30
2018-11-07T01:16:46.354Z,88.20
2018-11-07T01:19:17.896Z,87.90
2018-11-07T01:21:50.205Z,87.90
2018-11-07T01:24:21.510Z,88.10
2018-11-07T01:26:52.997Z,88.10
2018-11-07T01:29:24.448Z,88.10
2018-11-07T01:31:55.912Z,88.30
2018-11-07T01:34:27.521Z,88.40
2018-11-07T01:36:58.763Z,88.70
2018-11-07T01:39:30.213Z,88.80
2018-11-07T01:42:01.841Z,88.40
2018-11-07T01:44:33.256Z,88.40
2018-11-07T01:47:04.464Z,88.30
2018-11-07T01:49:35.942Z,88.40
2018-11-07T01:52:07.554Z,89.10
2018-11-07T01:54:39.029Z,88.90
2018-11-07T01:57:10.246Z,88.90
2018-11-07T01:59:41.489Z,89.00
2018-11-07T02:02:12.838Z,88.70
2018-11-07T02:04:44.476Z,88.70
2018-11-07T02:07:15.976Z,88.90
2018-11-07T02:09:47.401Z,88.80
2018-11-07T02:12:18.876Z,88.60
2018-11-07T02:14:50.426Z,88.80
2018-11-07T02:17:22.018Z,88.90
2018-11-07T02:19:53.638Z,89.20
2018-11-07T02:22:25.125Z,89.10
2018-11-07T02:24:56.188Z,89.50
2018-11-07T02:27:27.432Z,89.50
2018-11-07T02:29:58.956Z,89.40
2018-11-07T02:32:30.521Z,89.60
2018-11-07T02:35:01.892Z,89.70
2018-11-07T02:37:33.315Z,89.60
2018-11-07T02:40:04.925Z,89.40
2018-11-07T02:42:37.196Z,89.40
2018-11-07T02:45:08.677Z,89.50
2018-11-07T02:47:40.471Z,89.60
2018-11-07T02:50:12.633Z,89.60
2018-11-07T02:52:44.069Z,89.60
2018-11-07T02:55:15.481Z,89.80
2018-11-07T02:57:46.740Z,89.80
2018-11-07T03:00:18.257Z,90.00
2018-11-07T03:02:49.777Z,90.00
2018-11-07T03:05:21.288Z,90.00
2018-11-07T03:07:52.788Z,90.00
2018-11-07T03:10:24.071Z,90.00
2018-11-07T03:12:55.338Z,89.80
2018-11-07T03:15:26.684Z,90.00
2018-11-07T03:17:58.155Z,90.10
2018-11-07T03:20:29.713Z,90.30
2018-11-07T03:23:00.772Z,90.20
2018-11-07T03:25:36.222Z,90.20
2018-11-07T03:28:07.829Z,90.30
2018-11-07T03:30:39.177Z,90.10
2018-11-07T03:33:10.553Z,90.20
2018-11-07T03:35:41.983Z,90.20
2018-11-07T03:38:13.097Z,90.20
2018-11-07T03:40:44.474Z,90.20
2018-11-07T03:43:15.839Z,90.20
2018-11-07T03:45:51.912Z,90.30
2018-11-07T03:48:23.785Z,90.40
2018-11-07T03:50:55.186Z,90.40
2018-11-07T03:53:26.727Z,90.50
2018-11-07T03:55:58.278Z,91.20
2018-11-07T03:58:29.762Z,91.50
2018-11-07T04:01:01.543Z,90.90
2018-11-07T04:03:33.013Z,91.00
2018-11-07T04:06:04.760Z,91.30
2018-11-07T04:08:35.969Z,91.20
2018-11-07T04:11:07.250Z,91.30
2018-11-07T04:13:38.756Z,91.40
2018-11-07T04:16:10.029Z,91.40
2018-11-07T04:18:41.411Z,91.60
2018-11-07T04:21:12.591Z,91.70
2018-11-07T04:23:47.912Z,91.90
2018-11-07T04:26:19.236Z,92.00
2018-11-07T04:28:50.967Z,92.30
2018-11-07T04:31:22.522Z,92.20
2018-11-07T04:33:53.787Z,92.20
2018-11-07T04:36:25.868Z,92.20
2018-11-07T04:38:57.152Z,92.30
2018-11-07T04:41:28.709Z,92.40
2018-11-07T04:44:00.283Z,92.50
2018-11-07T04:46:31.840Z,92.60
2018-11-07T04:49:03.377Z,92.60
2018-11-07T04:51:34.826Z,92.80
2018-11-07T04:54:06.393Z,92.90
2018-11-07T04:56:37.616Z,92.90
2018-11-07T04:59:08.814Z,93.00
2018-11-07T05:01:40.498Z,93.00
2018-11-07T05:04:11.951Z,93.10
2018-11-07T05:06:43.378Z,93.20
2018-11-07T05:09:15.283Z,93.40
2018-11-07T05:11:46.631Z,93.10
2018-11-07T05:14:17.992Z,92.90
2018-11-07T05:16:49.335Z,93.00
2018-11-07T05:19:21.181Z,93.10
2018-11-07T05:21:52.837Z,93.20
2018-11-07T05:24:24.409Z,93.10
2018-11-07T05:26:55.968Z,93.00
2018-11-07T05:29:27.152Z,93.10
2018-11-07T05:31:58.994Z,93.20
2018-11-07T05:34:30.644Z,93.20
2018-11-07T05:37:02.257Z,93.20
2018-11-07T05:39:33.837Z,93.20
2018-11-07T05:42:05.485Z,93.20
2018-11-07T05:44:36.914Z,93.00
2018-11-07T05:47:08.159Z,92.90
2018-11-07T05:49:39.506Z,93.20
2018-11-07T05:52:11.269Z,93.10
2018-11-07T05:54:42.590Z,93.10
2018-11-07T05:57:14.085Z,93.20
2018-11-07T05:59:45.643Z,93.30
2018-11-07T06:02:17.014Z,93.30
2018-11-07T06:04:48.340Z,93.30
2018-11-07T06:07:19.948Z,93.20
2018-11-07T06:09:51.436Z,93.10
2018-11-07T06:12:23.039Z,93.30
2018-11-07T06:14:54.450Z,93.10
2018-11-07T06:17:25.787Z,93.20
2018-11-07T06:19:57.258Z,93.20
2018-11-07T06:22:28.835Z,93.20
2018-11-07T06:25:00.791Z,93.30
2018-11-07T06:27:32.526Z,93.20
2018-11-07T06:30:03.924Z,93.30
2018-11-07T06:32:35.428Z,93.30
2018-11-07T06:35:08.356Z,93.30
2018-11-07T06:37:39.594Z,93.30
2018-11-07T06:40:12.259Z,93.10
2018-11-07T06:42:43.798Z,93.00
2018-11-07T06:45:15.133Z,92.80
2018-11-07T06:47:46.571Z,92.90
2018-11-07T06:50:18.023Z,92.80
2018-11-07T06:52:49.544Z,92.60
2018-11-07T06:55:21.037Z,92.10
2018-11-07T06:57:52.387Z,92.60
2018-11-07T07:00:23.913Z,91.40
2018-11-07T07:02:55.312Z,90.80
2018-11-07T07:05:26.616Z,90.30
2018-11-07T07:07:57.917Z,90.20
2018-11-07T07:10:29.452Z,90.40
2018-11-07T07:13:00.852Z,89.10
2018-11-07T07:15:32.537Z,88.30
2018-11-07T07:18:04.360Z,88.30
2018-11-07T07:20:35.546Z,88.70
2018-11-07T07:23:07.072Z,88.00
2018-11-07T07:25:38.292Z,88.30
2018-11-07T07:28:10.121Z,88.00
2018-11-07T07:30:41.497Z,88.20
2018-11-07T07:33:12.857Z,88.30
2018-11-07T07:35:43.905Z,89.70
2018-11-07T07:38:15.532Z,90.10
2018-11-07T07:40:47.032Z,90.40
2018-11-07T07:43:18.205Z,90.80
2018-11-07T07:45:49.905Z,90.70
2018-11-07T07:48:21.221Z,90.70
2018-11-07T07:50:52.327Z,90.00
2018-11-07T07:53:23.473Z,88.80
2018-11-07T07:55:55.009Z,88.40
2018-11-07T07:58:26.171Z,88.30
2018-11-07T08:00:57.618Z,89.00
2018-11-07T08:03:29.265Z,88.70
2018-11-07T08:06:00.733Z,88.60
2018-11-07T08:08:32.480Z,88.70
2018-11-07T08:11:03.676Z,89.60
2018-11-07T08:13:35.652Z,90.40
2018-11-07T08:16:07.342Z,91.30
2018-11-07T08:18:38.591Z,91.30
2018-11-07T08:21:10.068Z,91.20
2018-11-07T08:23:41.281Z,91.40
2018-11-07T08:26:12.912Z,91.40
2018-11-07T08:28:44.440Z,91.00
2018-11-07T08:31:15.782Z,90.90
2018-11-07T08:33:47.507Z,91.00
2018-11-07T08:36:18.788Z,91.00
2018-11-07T08:38:50.102Z,91.00
2018-11-07T08:41:21.973Z,91.00
2018-11-07T08:43:53.452Z,90.50
2018-11-07T08:46:25.037Z,90.50
2018-11-07T08:48:56.536Z,90.50
2018-11-07T08:51:27.957Z,90.40
2018-11-07T08:53:59.525Z,89.90
2018-11-07T08:56:30.796Z,89.60
2018-11-07T08:59:02.293Z,88.90
2018-11-07T09:04:05.355Z,89.40
2018-11-07T09:06:37.785Z,89.30
2018-11-07T09:09:11.841Z,88.10
2018-11-07T09:11:43.570Z,88.20
2018-11-07T09:14:14.885Z,88.50
2018-11-07T09:16:46.393Z,88.90
2018-11-07T09:19:18.117Z,88.70
2018-11-07T09:21:49.715Z,88.60
2018-11-07T09:24:21.311Z,87.30
2018-11-07T09:26:52.604Z,85.90
2018-11-07T09:29:24.267Z,85.70
2018-11-07T09:31:55.737Z,85.70
2018-11-07T09:34:27.457Z,86.20
2018-11-07T09:36:59.238Z,85.60
2018-11-07T09:39:30.457Z,85.30
2018-11-07T09:42:02.114Z,86.10
2018-11-07T09:44:33.819Z,86.00
2018-11-07T09:47:05.524Z,87.10
2018-11-07T09:49:36.667Z,86.90
2018-11-07T09:52:08.241Z,86.70
2018-11-07T09:54:39.629Z,86.60
2018-11-07T09:57:10.967Z,87.20
2018-11-07T09:59:42.195Z,87.10
2018-11-07T10:02:13.913Z,87.30
2018-11-07T10:04:45.295Z,86.40
2018-11-07T10:07:16.662Z,86.50
2018-11-07T10:09:48.237Z,85.80
2018-11-07T10:12:19.541Z,86.00
2018-11-07T10:14:51.034Z,85.90
2018-11-07T10:17:22.478Z,85.80
2018-11-07T10:19:53.796Z,85.00
2018-11-07T10:22:25.335Z,84.90
2018-11-07T10:24:56.814Z,83.90
2018-11-07T10:27:29.030Z,82.30
2018-11-07T10:30:00.546Z,80.80
2018-11-07T10:32:31.796Z,79.50
2018-11-07T10:35:03.074Z,79.50
2018-11-07T10:37:34.269Z,79.10
2018-11-07T10:40:07.562Z,79.60
2018-11-07T10:42:39.072Z,81.00
2018-11-07T10:45:11.357Z,82.20
2018-11-07T10:47:43.873Z,81.60
2018-11-07T10:50:16.522Z,82.60
2018-11-07T10:52:48.508Z,82.60
2018-11-07T10:55:20.007Z,82.50
2018-11-07T10:57:51.594Z,82.10
2018-11-07T11:00:27.997Z,81.30
2018-11-07T11:03:10.022Z,80.70
2018-11-07T11:05:41.440Z,80.80
2018-11-07T11:08:12.891Z,81.10
2018-11-07T11:10:44.543Z,81.20
2018-11-07T11:13:15.895Z,80.90
2018-11-07T11:15:47.346Z,80.80
2018-11-07T11:18:18.525Z,81.00
2018-11-07T11:20:50.011Z,80.60
2018-11-07T11:23:21.414Z,80.00
2018-11-07T11:25:53.049Z,79.80
2018-11-07T11:28:24.605Z,79.70
2018-11-07T11:30:56.249Z,78.70
2018-11-07T11:33:27.708Z,79.50
2018-11-07T11:35:59.165Z,78.10
2018-11-07T11:38:30.504Z,77.70
2018-11-07T11:41:01.960Z,76.90
2018-11-07T11:43:33.366Z,78.00
2018-11-07T11:46:04.902Z,77.30
2018-11-07T11:48:36.532Z,77.80
2018-11-07T11:51:08.314Z,78.50
2018-11-07T11:53:39.793Z,78.50
2018-11-07T11:56:11.473Z,78.40
2018-11-07T11:58:43.498Z,79.20
2018-11-07T12:01:15.144Z,78.20
2018-11-07T12:03:46.898Z,78.50
2018-11-07T12:06:18.613Z,78.50
2018-11-07T12:08:50.064Z,79.00
2018-11-07T12:11:21.574Z,79.00
2018-11-07T12:13:53.083Z,78.10
2018-11-07T12:16:24.334Z,78.60
2018-11-07T12:18:55.529Z,77.60
2018-11-07T12:21:26.928Z,78.10
2018-11-07T12:23:58.328Z,78.10
2018-11-07T12:26:29.770Z,78.40
2018-11-07T12:29:01.162Z,78.40
2018-11-07T12:31:32.321Z,78.50
2018-11-07T12:34:03.799Z,78.20
2018-11-07T12:36:35.446Z,77.60
2018-11-07T12:39:08.900Z,77.40
2018-11-07T12:41:40.128Z,78.00
2018-11-07T12:44:11.735Z,77.80
2018-11-07T12:46:43.087Z,78.30
2018-11-07T12:49:14.290Z,78.90
2018-11-07T12:51:45.580Z,78.50
2018-11-07T12:54:17.138Z,77.80
2018-11-07T12:56:48.695Z,77.60
2018-11-07T12:59:20.067Z,77.60
2018-11-07T13:01:51.498Z,77.70
2018-11-07T13:04:23.097Z,77.90
2018-11-07T13:06:54.903Z,78.10
2018-11-07T13:09:26.443Z,77.60
2018-11-07T13:11:58.315Z,77.30
2018-11-07T13:14:29.696Z,77.30
2018-11-07T13:17:01.277Z,76.80
2018-11-07T13:19:32.786Z,76.80
2018-11-07T13:22:04.351Z,77.00
2018-11-07T13:24:36.253Z,77.40
2018-11-07T13:27:08.043Z,77.10
2018-11-07T13:29:39.677Z,77.10
2018-11-07T13:32:11.031Z,77.40
2018-11-07T13:34:42.413Z,77.50
2018-11-07T13:37:13.801Z,77.70
2018-11-07T13:39:45.157Z,77.40
2018-11-07T13:42:16.773Z,77.80
2018-11-07T13:44:48.223Z,78.30
2018-11-07T13:47:19.804Z,78.10
2018-11-07T13:49:51.209Z,78.10
2018-11-07T13:52:22.958Z,79.10
2018-11-07T13:54:54.478Z,78.30
2018-11-07T13:57:25.854Z,78.50
2018-11-07T13:59:57.284Z,78.90
2018-11-07T14:02:28.512Z,78.70
2018-11-07T14:04:59.781Z,78.60
2018-11-07T14:07:30.974Z,79.10
2018-11-07T14:10:02.688Z,79.20
2018-11-07T14:12:34.369Z,79.10
2018-11-07T14:15:07.360Z,79.20
2018-11-07T14:17:38.752Z,79.60
2018-11-07T14:20:10.425Z,80.00
2018-11-07T14:22:41.881Z,80.00
2018-11-07T14:25:13.993Z,80.10
2018-11-07T14:27:45.860Z,80.10
2018-11-07T14:30:19.209Z,80.50
2018-11-07T14:32:57.328Z,80.70
2018-11-07T14:35:28.923Z,80.60
2018-11-07T14:38:00.422Z,80.80
2018-11-07T14:40:31.890Z,81.00
2018-11-07T14:43:03.311Z,81.20
2018-11-07T14:45:34.504Z,81.30
2018-11-07T14:48:05.989Z,81.40
2018-11-07T14:50:37.444Z,81.60
2018-11-07T14:53:09.122Z,81.90
2018-11-07T14:55:40.441Z,82.00
2018-11-07T14:58:12.000Z,82.00
2018-11-07T15:00:43.712Z,82.30
2018-11-07T15:03:15.526Z,82.10
2018-11-07T15:05:46.851Z,82.00
2018-11-07T15:08:18.178Z,82.10
2018-11-07T15:10:49.672Z,82.30
2018-11-07T15:13:20.901Z,82.40
2018-11-07T15:15:52.400Z,82.60
2018-11-07T15:18:23.564Z,82.60
2018-11-07T15:20:55.287Z,83.00
2018-11-07T15:23:26.790Z,83.30
2018-11-07T15:25:57.951Z,83.40
2018-11-07T15:28:29.128Z,83.70
2018-11-07T15:31:00.391Z,84.60
2018-11-07T15:33:31.988Z,83.90
2018-11-07T15:36:03.513Z,84.10
2018-11-07T15:38:35.004Z,84.10
2018-11-07T15:41:06.522Z,84.30
2018-11-07T15:43:38.183Z,84.30
2018-11-07T15:46:09.613Z,84.40
2018-11-07T15:48:41.009Z,84.60
2018-11-07T15:51:13.372Z,84.90
2018-11-07T15:53:44.757Z,84.70
2018-11-07T15:56:16.040Z,84.80
2018-11-07T15:58:47.244Z,84.90
2018-11-07T16:01:18.881Z,85.10
2018-11-07T16:03:51.452Z,85.10
2018-11-07T16:06:22.892Z,85.50
2018-11-07T16:08:55.499Z,85.70
2018-11-07T16:11:27.820Z,86.00
2018-11-07T16:13:59.323Z,86.20
2018-11-07T16:16:30.777Z,86.50
2018-11-07T16:19:02.573Z,86.50
2018-11-07T16:21:34.284Z,86.30
2018-11-07T16:24:06.491Z,86.50
2018-11-07T16:26:38.133Z,86.50
2018-11-07T16:29:09.950Z,86.70
2018-11-07T16:31:41.348Z,87.00
2018-11-07T16:34:12.713Z,87.10
2018-11-07T16:36:44.309Z,87.90
2018-11-07T16:39:15.740Z,88.00
2018-11-07T16:41:47.338Z,87.90
2018-11-07T16:44:18.653Z,87.80
2018-11-07T16:46:49.968Z,87.80
2018-11-07T16:49:21.476Z,87.90
2018-11-07T16:51:53.015Z,88.10
2018-11-07T16:54:24.248Z,88.30
2018-11-07T16:56:55.774Z,88.70
2018-11-07T16:59:27.000Z,88.80
2018-11-07T17:01:58.797Z,89.10
2018-11-07T17:04:30.289Z,89.20
2018-11-07T17:07:01.795Z,89.20
2018-11-07T17:09:33.256Z,89.20
2018-11-07T17:12:04.737Z,89.10
2018-11-07T17:14:36.187Z,89.20
2018-11-07T17:17:07.605Z,89.20
2018-11-07T17:19:40.130Z,89.30
2018-11-07T17:22:12.094Z,89.30
2018-11-07T17:24:43.541Z,89.20
2018-11-07T17:27:15.208Z,89.20
2018-11-07T17:29:46.832Z,89.50
2018-11-07T17:32:18.614Z,89.60
2018-11-07T17:34:50.555Z,89.80
2018-11-07T17:37:21.925Z,90.10
2018-11-07T17:39:53.734Z,90.00
2018-11-07T17:42:25.200Z,90.00
2018-11-07T17:44:56.634Z,90.00
2018-11-07T17:47:28.119Z,90.30
2018-11-07T17:49:59.571Z,90.30
2018-11-07T17:52:31.111Z,90.40
2018-11-07T17:55:02.517Z,90.30
2018-11-07T17:57:34.362Z,90.30
2018-11-07T18:00:06.892Z,90.50
2018-11-07T18:02:38.853Z,90.60
2018-11-07T18:05:10.316Z,90.50
2018-11-07T18:07:41.883Z,90.60
2018-11-07T18:10:14.809Z,90.70
2018-11-07T18:12:46.726Z,90.70
2018-11-07T18:15:18.205Z,90.80
2018-11-07T18:17:49.949Z,90.90
2018-11-07T18:20:21.729Z,91.00
2018-11-07T18:22:53.512Z,91.10
2018-11-07T18:25:25.414Z,91.00
2018-11-07T18:27:57.253Z,90.90
2018-11-07T18:30:28.708Z,91.00
2018-11-07T18:33:00.440Z,91.00
2018-11-07T18:35:31.968Z,91.00
2018-11-07T18:38:03.633Z,91.00
2018-11-07T18:40:35.167Z,91.00
2018-11-07T18:43:06.623Z,91.00
2018-11-07T18:45:38.002Z,91.20
2018-11-07T18:48:09.518Z,91.30
2018-11-07T18:50:41.337Z,91.30
2018-11-07T18:53:12.629Z,91.20
2018-11-07T18:55:44.408Z,91.20
2018-11-07T18:58:16.238Z,91.40
2018-11-07T19:00:47.781Z,91.40
2018-11-07T19:03:19.828Z,91.50
2018-11-07T19:05:51.271Z,91.50
2018-11-07T19:08:23.401Z,91.50
2018-11-07T19:10:54.860Z,91.70
2018-11-07T19:13:27.475Z,91.80
2018-11-07T19:16:00.152Z,91.60
2018-11-07T19:18:31.693Z,91.60
2018-11-07T19:21:03.319Z,91.70
2018-11-07T19:23:35.420Z,92.00
2018-11-07T19:26:07.829Z,91.80
2018-11-07T19:28:39.941Z,91.80
2018-11-07T19:31:11.545Z,91.80
2018-11-07T19:33:43.325Z,91.70
2018-11-07T19:36:14.980Z,91.80
2018-11-07T19:38:46.859Z,91.90
2018-11-07T19:41:18.394Z,91.90
2018-11-07T19:43:49.901Z,91.80
2018-11-07T19:46:21.563Z,92.00
2018-11-07T19:48:52.991Z,91.90
2018-11-07T19:51:24.876Z,91.90
2018-11-07T19:53:56.514Z,91.90
2018-11-07T19:56:28.266Z,91.90
2018-11-07T19:59:00.138Z,92.00
2018-11-07T20:01:31.681Z,92.10
2018-11-07T20:04:03.877Z,92.10
2018-11-07T20:06:35.868Z,92.20
2018-11-07T20:09:10.116Z,92.00
2018-11-07T20:11:42.038Z,91.90
2018-11-07T20:14:14.147Z,92.10
2018-11-07T20:16:46.306Z,92.00
2018-11-07T20:19:18.181Z,91.90
2018-11-07T20:21:49.843Z,91.90
2018-11-07T20:24:22.988Z,91.90
2018-11-07T20:26:54.953Z,92.00
2018-11-07T20:29:27.875Z,91.90
2018-11-07T20:32:00.118Z,91.90
2018-11-07T20:34:31.859Z,91.80
2018-11-07T20:37:03.704Z,91.80
2018-11-07T20:39:35.735Z,91.50
2018-11-07T20:42:07.789Z,91.60
2018-11-07T20:44:39.621Z,91.70
2018-11-07T20:47:11.504Z,91.70
2018-11-07T20:49:43.214Z,91.80
2018-11-07T20:52:14.982Z,91.80
2018-11-07T20:54:46.867Z,91.90
2018-11-07T20:57:18.286Z,92.10
2018-11-07T20:59:50.080Z,92.10
2018-11-07T21:02:21.630Z,92.00
2018-11-07T21:04:53.303Z,92.10
2018-11-07T21:07:24.859Z,92.00
2018-11-07T21:09:56.312Z,92.20
2018-11-07T21:12:27.503Z,92.20
2018-11-07T21:14:59.034Z,92.30
2018-11-07T21:17:30.278Z,92.70
2018-11-07T21:20:01.806Z,92.30
2018-11-07T21:22:33.053Z,92.50
2018-11-07T21:25:05.166Z,92.50
2018-11-07T21:35:19.669Z,92.10
2018-11-07T21:37:51.737Z,92.20
2018-11-07T21:40:23.810Z,92.40
2018-11-07T21:42:55.339Z,92.30
2018-11-07T21:45:26.852Z,92.20
2018-11-07T21:47:58.252Z,92.20
2018-11-07T21:50:30.136Z,92.40
2018-11-07T21:53:01.714Z,92.60
2018-11-07T21:55:33.224Z,92.50
2018-11-07T21:58:04.600Z,92.70
2018-11-07T22:00:36.357Z,92.30
2018-11-07T22:03:07.746Z,92.40
2018-11-07T22:05:39.071Z,92.50
2018-11-07T22:08:10.132Z,92.30
2018-11-07T22:10:41.433Z,92.60
2018-11-07T22:13:13.035Z,92.30
2018-11-07T22:15:44.564Z,92.20
2018-11-07T22:18:16.321Z,92.20
2018-11-07T22:20:47.736Z,92.70
2018-11-07T22:23:19.107Z,92.40
2018-11-07T22:25:50.497Z,92.50
2018-11-07T22:28:22.234Z,92.60
2018-11-07T22:30:53.764Z,92.50
2018-11-07T22:33:25.242Z,92.50
2018-11-07T22:35:56.994Z,92.50
2018-11-07T22:38:28.410Z,92.60
2018-11-07T22:41:00.689Z,92.70
2018-11-07T22:43:32.125Z,92.60
2018-11-07T22:46:03.638Z,92.50
2018-11-07T22:48:35.310Z,92.60
2018-11-07T22:51:07.069Z,92.60
2018-11-07T22:53:38.273Z,92.80
2018-11-07T22:56:09.750Z,92.70
2018-11-07T22:58:41.340Z,92.90
2018-11-07T23:01:12.697Z,92.70
2018-11-07T23:03:44.237Z,92.80
2018-11-07T23:06:15.389Z,92.80
2018-11-07T23:08:46.983Z,92.80
2018-11-07T23:11:18.439Z,92.80
2018-11-07T23:13:49.768Z,93.00
2018-11-07T23:16:21.528Z,93.10
2018-11-07T23:18:52.764Z,93.10
2018-11-07T23:21:24.613Z,93.20
2018-11-07T23:23:56.142Z,93.00
2018-11-07T23:26:27.576Z,92.90
2018-11-07T23:28:58.959Z,92.80
2018-11-07T23:31:30.405Z,92.90
2018-11-07T23:34:02.462Z,93.00
2018-11-07T23:36:34.197Z,93.00
2018-11-07T23:39:07.371Z,93.00
2018-11-07T23:41:38.962Z,93.00
2018-11-07T23:44:10.454Z,92.90
2018-11-07T23:46:41.684Z,93.00
2018-11-07T23:49:13.365Z,93.30
2018-11-07T23:51:48.655Z,93.30
2018-11-07T23:54:21.759Z,93.20
2018-11-07T23:56:53.349Z,93.30
2018-11-07T23:59:24.712Z,93.40
